Time;durP1;ratioP1;P1;durP2;ratioP2;P2;SDS_P1;SDS_P2;PMS_P1;PMS_P2;Temp;Humidity;BMP_temperature;BMP_pressure;BME280_temperature;BME280_humidity;BME280_pressure;Samples;Min_cycle;Max_cycle;Signal;HPM_P1;HPM_P2
2023/09/14 00:00:26;;;;;;;7.32;5.20;;;;;;;;;;4962584;28;20093;-58
2023/09/14 00:02:53;;;;;;;7.18;4.72;;;;;;;;;;4965206;28;20502;-53
2023/09/14 00:05:19;;;;;;;6.97;5.05;;;;;;;;;;4974721;28;20047;-53
2023/09/14 00:07:46;;;;;;;7.85;5.20;;;;;;;;;;4961959;28;20046;-53
2023/09/14 00:10:14;;;;;;;8.52;5.93;;;;;;;;;;4982509;28;20042;-55
2023/09/14 00:12:40;;;;;;;8.52;5.32;;;;;;;;;;4988294;28;20085;-56
2023/09/14 00:15:07;;;;;;;7.05;4.93;;;;;;;;;;4972128;28;20050;-55
2023/09/14 00:17:36;;;;;;;8.43;6.07;;;;;;;;;;4966902;28;20729;-54
2023/09/14 00:20:06;;;;;;;7.65;5.30;;;;;;;;;;4990946;28;20060;-53
2023/09/14 00:22:33;;;;;;;8.85;6.00;;;;;;;;;;4975353;28;20138;-53
2023/09/14 00:24:59;;;;;;;7.43;5.28;;;;;;;;;;4975280;28;20487;-51
2023/09/14 00:27:26;;;;;;;8.30;5.82;;;;;;;;;;4966959;28;20137;-53
2023/09/14 00:29:53;;;;;;;7.80;5.47;;;;;;;;;;4990227;28;20137;-56
2023/09/14 00:32:19;;;;;;;7.32;5.40;;;;;;;;;;4969174;28;20416;-55
2023/09/14 00:34:47;;;;;;;7.75;5.65;;;;;;;;;;4967702;28;20042;-56
2023/09/14 00:37:14;;;;;;;8.23;5.40;;;;;;;;;;4974729;28;20545;-54
2023/09/14 00:39:40;;;;;;;7.70;5.43;;;;;;;;;;4955644;28;20070;-52
2023/09/14 00:42:07;;;;;;;9.25;6.25;;;;;;;;;;4966851;28;20043;-55
2023/09/14 00:44:33;;;;;;;8.68;5.55;;;;;;;;;;4986285;28;20054;-55
2023/09/14 00:47:00;;;;;;;8.48;5.72;;;;;;;;;;4974123;28;20125;-51
2023/09/14 00:49:27;;;;;;;8.45;5.40;;;;;;;;;;4981755;28;20053;-55
2023/09/14 00:51:55;;;;;;;8.27;5.50;;;;;;;;;;4957685;28;20142;-55
2023/09/14 00:54:22;;;;;;;8.02;5.03;;;;;;;;;;4972077;28;20053;-57
2023/09/14 00:56:48;;;;;;;8.75;6.05;;;;;;;;;;4969573;28;20074;-57
2023/09/14 00:59:15;;;;;;;9.38;6.18;;;;;;;;;;4985209;28;20042;-56
2023/09/14 01:01:41;;;;;;;8.95;6.57;;;;;;;;;;4966065;28;20143;-55
2023/09/14 01:04:08;;;;;;;8.65;6.47;;;;;;;;;;4961014;28;20125;-55
2023/09/14 01:06:35;;;;;;;8.00;6.10;;;;;;;;;;4974027;28;20054;-54
2023/09/14 01:09:05;;;;;;;9.10;6.95;;;;;;;;;;4976214;28;20069;-55
2023/09/14 01:11:31;;;;;;;9.07;6.68;;;;;;;;;;4956761;28;20078;-54
2023/09/14 01:14:08;;;;;;;8.52;5.95;;;;;;;;;;4966914;28;20051;-57
2023/09/14 01:16:41;;;;;;;11.00;6.35;;;;;;;;;;4965597;28;20073;-56
2023/09/14 01:19:19;;;;;;;8.00;5.85;;;;;;;;;;4962531;28;20426;-55
2023/09/14 01:22:03;;;;;;;9.38;6.28;;;;;;;;;;4958921;28;20410;-55
2023/09/14 01:24:46;;;;;;;9.60;6.75;;;;;;;;;;4964107;28;20047;-56
2023/09/14 01:27:15;;;;;;;8.98;6.97;;;;;;;;;;4961541;28;20057;-56
2023/09/14 01:29:41;;;;;;;8.38;6.47;;;;;;;;;;4966756;28;20057;-55
2023/09/14 01:32:08;;;;;;;9.77;6.43;;;;;;;;;;4965903;28;20054;-55
2023/09/14 01:34:35;;;;;;;10.93;7.22;;;;;;;;;;4965206;28;20558;-55
2023/09/14 01:37:05;;;;;;;10.55;7.20;;;;;;;;;;4959854;28;20043;-55
2023/09/14 01:39:33;;;;;;;11.10;6.90;;;;;;;;;;4959465;28;20051;-58
2023/09/14 01:42:00;;;;;;;9.88;7.38;;;;;;;;;;4954425;28;20053;-56
2023/09/14 01:44:28;;;;;;;9.25;6.88;;;;;;;;;;4962286;28;20137;-53
2023/09/14 01:46:55;;;;;;;11.88;8.38;;;;;;;;;;4963552;28;20054;-55
2023/09/14 01:49:22;;;;;;;9.50;7.32;;;;;;;;;;4955951;28;20051;-57
2023/09/14 01:51:49;;;;;;;9.70;6.90;;;;;;;;;;4954472;28;20418;-53
2023/09/14 01:54:15;;;;;;;9.73;7.75;;;;;;;;;;4954121;28;20139;-53
2023/09/14 01:56:43;;;;;;;11.23;7.68;;;;;;;;;;4954254;28;20122;-54
2023/09/14 01:59:09;;;;;;;9.60;7.35;;;;;;;;;;4956967;28;20430;-57
2023/09/14 02:01:37;;;;;;;9.05;6.75;;;;;;;;;;4954534;28;20154;-54
2023/09/14 02:04:04;;;;;;;11.52;7.95;;;;;;;;;;4968727;28;20129;-54
2023/09/14 02:06:31;;;;;;;9.95;7.55;;;;;;;;;;4965384;28;20518;-55
2023/09/14 02:08:57;;;;;;;10.13;7.47;;;;;;;;;;4972287;28;20046;-53
2023/09/14 02:11:24;;;;;;;10.25;7.05;;;;;;;;;;4963905;28;20067;-54
2023/09/14 02:13:51;;;;;;;9.77;7.65;;;;;;;;;;4953793;28;20566;-57
2023/09/14 02:16:17;;;;;;;12.25;7.53;;;;;;;;;;4954409;28;20073;-56
2023/09/14 02:18:45;;;;;;;11.32;7.63;;;;;;;;;;4953753;28;20134;-56
2023/09/14 02:21:12;;;;;;;10.27;7.60;;;;;;;;;;4960596;28;20559;-55
2023/09/14 02:23:39;;;;;;;11.70;7.93;;;;;;;;;;4953780;28;20051;-54
2023/09/14 02:26:06;;;;;;;12.40;8.07;;;;;;;;;;4953232;28;20071;-54
2023/09/14 02:28:32;;;;;;;10.20;8.10;;;;;;;;;;4953675;28;20126;-53
2023/09/14 02:30:59;;;;;;;14.50;8.27;;;;;;;;;;4966773;28;20047;-54
2023/09/14 02:33:26;;;;;;;11.05;7.50;;;;;;;;;;4955379;28;20134;-55
2023/09/14 02:35:54;;;;;;;13.73;8.10;;;;;;;;;;4953531;28;20055;-55
2023/09/14 02:38:22;;;;;;;11.20;8.32;;;;;;;;;;4953139;28;20051;-55
2023/09/14 02:40:48;;;;;;;11.90;8.50;;;;;;;;;;4962180;28;20050;-59
2023/09/14 02:43:15;;;;;;;10.55;7.90;;;;;;;;;;4972782;28;20135;-54
2023/09/14 02:45:41;;;;;;;12.32;8.57;;;;;;;;;;4953728;28;20057;-51
2023/09/14 02:48:08;;;;;;;12.48;8.55;;;;;;;;;;4953185;28;20130;-53
2023/09/14 02:50:35;;;;;;;10.88;8.40;;;;;;;;;;4954231;28;20054;-58
2023/09/14 02:53:03;;;;;;;12.02;9.25;;;;;;;;;;4953489;28;20047;-54
2023/09/14 02:55:29;;;;;;;12.27;8.60;;;;;;;;;;4953174;28;20062;-54
2023/09/14 02:57:56;;;;;;;12.18;8.23;;;;;;;;;;4956335;28;20047;-57
2023/09/14 03:00:23;;;;;;;11.20;8.75;;;;;;;;;;4964104;28;20458;-56
2023/09/14 03:02:49;;;;;;;12.65;9.02;;;;;;;;;;4959250;28;20631;-56
2023/09/14 03:05:15;;;;;;;12.00;8.50;;;;;;;;;;4965869;28;20051;-58
2023/09/14 03:07:42;;;;;;;11.18;8.77;;;;;;;;;;4952870;28;20069;-56
2023/09/14 03:10:10;;;;;;;11.65;8.23;;;;;;;;;;4953286;28;20050;-56
2023/09/14 03:12:37;;;;;;;10.88;8.23;;;;;;;;;;4955527;28;20074;-56
2023/09/14 03:15:04;;;;;;;11.65;8.57;;;;;;;;;;4953283;28;20043;-57
2023/09/14 03:17:31;;;;;;;16.40;9.07;;;;;;;;;;4961856;28;20053;-56
2023/09/14 03:19:57;;;;;;;12.82;9.45;;;;;;;;;;4953201;28;20133;-56
2023/09/14 03:22:24;;;;;;;15.02;10.00;;;;;;;;;;4960401;28;20609;-56
2023/09/14 03:24:51;;;;;;;14.45;10.00;;;;;;;;;;4953079;28;20047;-55
2023/09/14 03:27:19;;;;;;;14.18;10.13;;;;;;;;;;4953031;28;20134;-53
2023/09/14 03:29:45;;;;;;;16.17;11.00;;;;;;;;;;4953329;28;20054;-56
2023/09/14 03:32:12;;;;;;;14.80;10.73;;;;;;;;;;4956268;28;20046;-55
2023/09/14 03:34:39;;;;;;;13.93;10.07;;;;;;;;;;4953241;28;20138;-52
2023/09/14 03:37:05;;;;;;;15.80;11.18;;;;;;;;;;4952919;28;20047;-57
2023/09/14 03:39:32;;;;;;;14.07;9.98;;;;;;;;;;4957897;28;20051;-54
2023/09/14 03:41:59;;;;;;;14.30;10.27;;;;;;;;;;4956713;28;20051;-56
2023/09/14 03:44:27;;;;;;;22.60;11.38;;;;;;;;;;4956705;28;20094;-58
2023/09/14 03:46:53;;;;;;;15.55;11.80;;;;;;;;;;4956874;28;20434;-54
2023/09/14 03:49:20;;;;;;;13.90;10.07;;;;;;;;;;4956372;28;20086;-55
2023/09/14 03:51:47;;;;;;;15.18;10.55;;;;;;;;;;4961305;28;20521;-57
2023/09/14 03:54:13;;;;;;;15.73;11.15;;;;;;;;;;4956571;28;20043;-55
2023/09/14 03:56:40;;;;;;;15.10;11.02;;;;;;;;;;4956334;28;20047;-56
2023/09/14 03:59:07;;;;;;;16.58;10.80;;;;;;;;;;4963937;28;20047;-56
2023/09/14 04:01:35;;;;;;;15.82;11.52;;;;;;;;;;4973663;28;20090;-55
2023/09/14 04:04:02;;;;;;;15.10;10.93;;;;;;;;;;4961504;28;20051;-56
2023/09/14 04:06:29;;;;;;;15.88;11.45;;;;;;;;;;4956084;28;20047;-55
2023/09/14 04:08:55;;;;;;;15.68;10.85;;;;;;;;;;4969439;28;20046;-58
2023/09/14 04:11:22;;;;;;;16.02;11.23;;;;;;;;;;4958435;28;20045;-53
2023/09/14 04:13:49;;;;;;;15.57;11.15;;;;;;;;;;4961736;28;20077;-55
2023/09/14 04:16:16;;;;;;;14.45;10.52;;;;;;;;;;4956904;28;20072;-54
2023/09/14 04:18:44;;;;;;;15.30;11.13;;;;;;;;;;4955641;28;20245;-51
2023/09/14 04:21:10;;;;;;;16.25;10.70;;;;;;;;;;4956212;28;20483;-55
2023/09/14 04:23:37;;;;;;;14.52;11.15;;;;;;;;;;4967068;28;20495;-56
2023/09/14 04:26:03;;;;;;;15.10;11.32;;;;;;;;;;4958334;28;20051;-54
2023/09/14 04:28:31;;;;;;;16.70;11.80;;;;;;;;;;4955419;28;20090;-56
2023/09/14 04:31:01;;;;;;;16.20;11.85;;;;;;;;;;4968909;28;20046;-51
2023/09/14 04:33:28;;;;;;;16.40;11.38;;;;;;;;;;4966483;28;20518;-51
2023/09/14 04:36:02;;;;;;;16.13;11.32;;;;;;;;;;4970326;28;20059;-58
2023/09/14 04:38:29;;;;;;;15.55;10.93;;;;;;;;;;4955335;28;20138;-58
2023/09/14 04:40:55;;;;;;;14.00;10.40;;;;;;;;;;4963533;28;20067;-58
2023/09/14 04:43:24;;;;;;;15.73;11.65;;;;;;;;;;4968193;28;20563;-58
2023/09/14 04:45:50;;;;;;;15.23;11.27;;;;;;;;;;4967016;28;20057;-58
2023/09/14 04:48:17;;;;;;;15.23;12.02;;;;;;;;;;4966177;28;20059;-56
2023/09/14 04:50:44;;;;;;;15.60;11.00;;;;;;;;;;4974168;28;20047;-52
2023/09/14 04:53:12;;;;;;;14.20;10.50;;;;;;;;;;4966447;28;20131;-55
2023/09/14 04:55:38;;;;;;;15.90;11.10;;;;;;;;;;4966643;28;20078;-51
2023/09/14 04:58:07;;;;;;;14.68;10.80;;;;;;;;;;4965891;28;20051;-52
2023/09/14 05:00:34;;;;;;;16.35;11.02;;;;;;;;;;4965523;28;20418;-51
2023/09/14 05:03:04;;;;;;;15.70;11.68;;;;;;;;;;4960826;28;20130;-52
2023/09/14 05:05:31;;;;;;;;;;;;;;;;;;4969431;28;20074;-53
2023/09/14 05:07:57;;;;;;;13.60;9.85;;;;;;;;;;4968528;28;19923;-55
2023/09/14 05:10:26;;;;;;;13.90;10.75;;;;;;;;;;4963080;28;20057;-53
2023/09/14 05:12:53;;;;;;;15.57;11.65;;;;;;;;;;4962949;28;20093;-54
2023/09/14 05:15:19;;;;;;;15.70;11.00;;;;;;;;;;4956100;28;20047;-55
2023/09/14 05:17:46;;;;;;;16.33;11.25;;;;;;;;;;4962798;28;20047;-55
2023/09/14 05:20:14;;;;;;;14.55;11.25;;;;;;;;;;4972981;28;20057;-55
2023/09/14 05:22:41;;;;;;;16.25;11.18;;;;;;;;;;4977975;28;20054;-54
2023/09/14 05:25:09;;;;;;;16.33;11.38;;;;;;;;;;4977642;28;20569;-53
2023/09/14 05:27:38;;;;;;;15.32;10.45;;;;;;;;;;4977443;28;20057;-54
2023/09/14 05:30:06;;;;;;;14.93;11.60;;;;;;;;;;4981556;28;20126;-54
2023/09/14 05:32:32;;;;;;;17.00;11.10;;;;;;;;;;4963691;28;20129;-57
2023/09/14 05:34:59;;;;;;;14.18;10.00;;;;;;;;;;4962281;28;20130;-53
2023/09/14 05:37:26;;;;;;;15.80;11.45;;;;;;;;;;4957408;28;20083;-53
2023/09/14 05:39:52;;;;;;;15.45;11.07;;;;;;;;;;4961081;28;20138;-51
2023/09/14 05:42:19;;;;;;;14.32;11.05;;;;;;;;;;4962240;28;20439;-56
2023/09/14 05:44:47;;;;;;;16.67;11.27;;;;;;;;;;4962603;28;20507;-52
2023/09/14 05:47:15;;;;;;;15.95;12.38;;;;;;;;;;4960475;28;20047;-50
2023/09/14 05:49:42;;;;;;;14.18;10.65;;;;;;;;;;4966229;28;20047;-52
2023/09/14 05:52:09;;;;;;;15.73;11.57;;;;;;;;;;4978881;28;20070;-52
2023/09/14 05:54:36;;;;;;;16.25;11.93;;;;;;;;;;4963611;28;20129;-53
2023/09/14 05:57:03;;;;;;;16.35;12.38;;;;;;;;;;4966125;28;20406;-52
2023/09/14 05:59:30;;;;;;;16.63;12.23;;;;;;;;;;4963531;28;20078;-55
2023/09/14 06:01:58;;;;;;;18.15;12.38;;;;;;;;;;4961467;28;20130;-52
2023/09/14 06:04:25;;;;;;;16.83;12.48;;;;;;;;;;4963275;28;20163;-52
2023/09/14 06:06:51;;;;;;;17.42;12.90;;;;;;;;;;4972739;28;20141;-56
2023/09/14 06:09:18;;;;;;;19.20;13.85;;;;;;;;;;4977953;28;20043;-54
2023/09/14 06:11:45;;;;;;;17.08;13.50;;;;;;;;;;4968448;28;20150;-51
2023/09/14 06:14:11;;;;;;;20.42;14.23;;;;;;;;;;4965342;28;20047;-54
2023/09/14 06:16:38;;;;;;;22.05;15.00;;;;;;;;;;4961067;28;20413;-53
2023/09/14 06:19:06;;;;;;;18.92;14.10;;;;;;;;;;4958370;28;20053;-58
2023/09/14 06:21:34;;;;;;;21.02;16.27;;;;;;;;;;4958214;28;20051;-58
2023/09/14 06:24:00;;;;;;;22.55;16.75;;;;;;;;;;4961657;28;20602;-54
2023/09/14 06:26:27;;;;;;;21.25;15.70;;;;;;;;;;4964535;28;20138;-56
2023/09/14 06:28:55;;;;;;;22.23;16.17;;;;;;;;;;4961228;28;20502;-55
2023/09/14 06:31:22;;;;;;;22.10;16.25;;;;;;;;;;4968687;28;20046;-56
2023/09/14 06:33:49;;;;;;;21.45;16.90;;;;;;;;;;4975301;28;20053;-57
2023/09/14 06:36:18;;;;;;;22.33;16.55;;;;;;;;;;4972489;28;20464;-54
2023/09/14 06:38:45;;;;;;;23.23;16.83;;;;;;;;;;4967001;28;20129;-52
2023/09/14 06:41:12;;;;;;;20.90;17.10;;;;;;;;;;4973728;28;20054;-54
2023/09/14 06:43:39;;;;;;;21.50;17.52;;;;;;;;;;4962287;28;20047;-55
2023/09/14 06:46:06;;;;;;;23.33;16.95;;;;;;;;;;4962716;28;20138;-52
2023/09/14 06:48:33;;;;;;;21.52;17.40;;;;;;;;;;4968059;28;20046;-56
2023/09/14 06:50:59;;;;;;;21.77;17.17;;;;;;;;;;4967982;28;20515;-56
2023/09/14 06:53:27;;;;;;;22.13;17.30;;;;;;;;;;4964652;28;20045;-57
2023/09/14 06:55:54;;;;;;;22.42;16.73;;;;;;;;;;4966241;28;20134;-57
2023/09/14 06:58:21;;;;;;;21.30;16.65;;;;;;;;;;4970464;28;20038;-56
2023/09/14 07:00:47;;;;;;;20.23;16.73;;;;;;;;;;4967869;28;20558;-58
2023/09/14 07:03:14;;;;;;;22.55;16.90;;;;;;;;;;4974700;28;20065;-56
2023/09/14 07:05:41;;;;;;;24.30;18.10;;;;;;;;;;4961295;28;20053;-59
2023/09/14 07:08:07;;;;;;;22.52;16.80;;;;;;;;;;4954150;28;20415;-55
2023/09/14 07:10:36;;;;;;;24.10;17.63;;;;;;;;;;4964185;28;20055;-53
2023/09/14 07:13:02;;;;;;;24.27;18.58;;;;;;;;;;4973095;28;20043;-55
2023/09/14 07:15:30;;;;;;;25.88;19.35;;;;;;;;;;4972789;28;20058;-55
2023/09/14 07:17:57;;;;;;;26.80;18.52;;;;;;;;;;4974449;28;20220;-57
2023/09/14 07:20:23;;;;;;;25.35;19.35;;;;;;;;;;4971917;28;20047;-52
2023/09/14 07:22:50;;;;;;;26.85;20.27;;;;;;;;;;4973375;28;20495;-56
2023/09/14 07:25:17;;;;;;;27.95;20.88;;;;;;;;;;4974831;28;20054;-59
2023/09/14 07:27:45;;;;;;;28.75;20.20;;;;;;;;;;4968729;28;20065;-61
2023/09/14 07:30:14;;;;;;;25.63;18.85;;;;;;;;;;4988310;28;20138;-57
2023/09/14 07:32:41;;;;;;;27.23;19.92;;;;;;;;;;4968919;28;20126;-53
2023/09/14 07:35:08;;;;;;;28.15;19.30;;;;;;;;;;4977052;28;20538;-65
2023/09/14 07:37:36;;;;;;;27.05;19.55;;;;;;;;;;4971828;28;20218;-55
2023/09/14 07:40:03;;;;;;;24.27;18.00;;;;;;;;;;4970257;28;20054;-64
2023/09/14 07:42:30;;;;;;;26.42;19.58;;;;;;;;;;4968519;28;20059;-67
2023/09/14 07:44:58;;;;;;;27.90;20.80;;;;;;;;;;4976533;28;20054;-68
2023/09/14 07:47:28;;;;;;;30.65;21.67;;;;;;;;;;4972790;28;20142;-63
2023/09/14 07:49:54;;;;;;;27.77;19.35;;;;;;;;;;4968621;28;20055;-63
2023/09/14 07:52:23;;;;;;;27.65;19.42;;;;;;;;;;4975786;28;20397;-63
2023/09/14 07:54:49;;;;;;;27.20;20.50;;;;;;;;;;4973791;28;20054;-63
2023/09/14 07:57:16;;;;;;;26.77;19.58;;;;;;;;;;4973265;28;20051;-64
2023/09/14 07:59:43;;;;;;;28.48;20.00;;;;;;;;;;4965586;28;20054;-65
2023/09/14 08:02:11;;;;;;;26.65;20.23;;;;;;;;;;4974560;28;20078;-66
2023/09/14 08:04:38;;;;;;;27.52;19.52;;;;;;;;;;4969966;28;20086;-65
2023/09/14 08:07:05;;;;;;;27.83;19.85;;;;;;;;;;4978338;28;20050;-64
2023/09/14 08:09:31;;;;;;;25.83;19.58;;;;;;;;;;4973359;28;20526;-65
2023/09/14 08:12:01;;;;;;;23.30;17.80;;;;;;;;;;4971690;28;20142;-71
2023/09/14 08:14:27;;;;;;;25.77;18.60;;;;;;;;;;4966397;28;20063;-69
2023/09/14 08:16:54;;;;;;;24.83;18.70;;;;;;;;;;4968555;28;20574;-66
2023/09/14 08:19:22;;;;;;;23.40;17.85;;;;;;;;;;4968542;28;20043;-70
2023/09/14 08:21:49;;;;;;;25.45;19.15;;;;;;;;;;4963575;28;20121;-63
2023/09/14 08:24:15;;;;;;;24.70;17.67;;;;;;;;;;4967668;28;20043;-62
2023/09/14 08:26:42;;;;;;;26.00;18.75;;;;;;;;;;4968491;28;20425;-64
2023/09/14 08:29:08;;;;;;;24.33;18.83;;;;;;;;;;4971106;28;20129;-63
2023/09/14 08:31:35;;;;;;;24.25;18.15;;;;;;;;;;4966555;28;20486;-63
2023/09/14 08:34:01;;;;;;;22.60;18.33;;;;;;;;;;4968184;28;20055;-64
2023/09/14 08:36:30;;;;;;;25.48;19.42;;;;;;;;;;4974479;28;20057;-60
2023/09/14 08:38:56;;;;;;;25.27;18.40;;;;;;;;;;4964575;28;20042;-62
2023/09/14 08:41:30;;;;;;;23.98;19.25;;;;;;;;;;4968837;28;20657;-62
2023/09/14 08:43:57;;;;;;;25.70;19.02;;;;;;;;;;4968175;28;20469;-63
2023/09/14 08:46:25;;;;;;;24.27;18.58;;;;;;;;;;4974303;28;20049;-63
2023/09/14 08:48:55;;;;;;;23.42;18.13;;;;;;;;;;4972866;28;20057;-63
2023/09/14 08:51:25;;;;;;;26.75;19.95;;;;;;;;;;4970142;28;20455;-63
2023/09/14 08:53:53;;;;;;;23.97;17.67;;;;;;;;;;4973799;28;20517;-63
2023/09/14 08:56:21;;;;;;;23.70;18.13;;;;;;;;;;4972342;28;20493;-62
2023/09/14 08:58:49;;;;;;;22.92;17.55;;;;;;;;;;4969200;28;20101;-63
2023/09/14 09:01:18;;;;;;;27.77;19.92;;;;;;;;;;4962464;28;20049;-63
2023/09/14 09:03:45;;;;;;;25.52;18.85;;;;;;;;;;4968720;28;20055;-65
2023/09/14 09:06:12;;;;;;;24.05;19.42;;;;;;;;;;4967262;28;20557;-66
2023/09/14 09:08:39;;;;;;;22.85;17.65;;;;;;;;;;4964862;28;20057;-64
2023/09/14 09:11:07;;;;;;;21.73;17.33;;;;;;;;;;4965444;28;20133;-59
2023/09/14 09:13:34;;;;;;;27.08;19.30;;;;;;;;;;4966608;28;20138;-61
2023/09/14 09:16:01;;;;;;;25.63;18.30;;;;;;;;;;4965152;28;20043;-61
2023/09/14 09:18:28;;;;;;;24.02;18.48;;;;;;;;;;4970816;28;20733;-61
2023/09/14 09:20:54;;;;;;;24.83;18.08;;;;;;;;;;4964672;28;20094;-60
2023/09/14 09:23:21;;;;;;;23.65;17.73;;;;;;;;;;4963757;28;20050;-61
2023/09/14 09:25:50;;;;;;;21.75;17.08;;;;;;;;;;4979895;28;20769;-62
2023/09/14 09:28:18;;;;;;;24.55;18.90;;;;;;;;;;4977190;28;20057;-59
2023/09/14 09:30:45;;;;;;;23.02;18.00;;;;;;;;;;4970141;28;20043;-60
2023/09/14 09:33:12;;;;;;;24.25;18.60;;;;;;;;;;4980068;28;20483;-62
2023/09/14 09:35:39;;;;;;;23.67;18.08;;;;;;;;;;4971083;28;20051;-62
2023/09/14 09:38:13;;;;;;;22.00;17.38;;;;;;;;;;4970183;28;20050;-62
2023/09/14 09:40:41;;;;;;;25.75;19.33;;;;;;;;;;4969974;28;20466;-61
2023/09/14 09:43:10;;;;;;;23.65;18.52;;;;;;;;;;4967611;28;20050;-66
2023/09/14 09:45:42;;;;;;;26.25;18.63;;;;;;;;;;4971339;28;20058;-71
2023/09/14 09:48:10;;;;;;;25.92;18.80;;;;;;;;;;4973643;28;20050;-63
2023/09/14 09:50:36;;;;;;;25.15;18.48;;;;;;;;;;4971199;28;20050;-63
2023/09/14 09:53:03;;;;;;;23.98;17.05;;;;;;;;;;4982327;28;20426;-63
2023/09/14 09:55:30;;;;;;;25.15;18.33;;;;;;;;;;4975105;28;20058;-62
2023/09/14 09:57:58;;;;;;;23.15;17.63;;;;;;;;;;4962371;28;20149;-63
2023/09/14 10:00:29;;;;;;;26.55;18.23;;;;;;;;;;4972853;28;20058;-63
2023/09/14 10:02:57;;;;;;;22.35;16.33;;;;;;;;;;4971133;28;20493;-65
2023/09/14 10:05:31;;;;;;;22.60;16.55;;;;;;;;;;4977325;28;20047;-64
2023/09/14 10:07:58;;;;;;;22.27;15.82;;;;;;;;;;4969801;28;20134;-64
2023/09/14 10:10:26;;;;;;;25.75;19.15;;;;;;;;;;4983222;28;20636;-64
2023/09/14 10:12:54;;;;;;;24.67;18.50;;;;;;;;;;4966733;28;20042;-64
2023/09/14 10:15:21;;;;;;;21.85;16.38;;;;;;;;;;4967397;28;20046;-64
2023/09/14 10:17:52;;;;;;;23.77;16.70;;;;;;;;;;4964462;28;20304;-63
2023/09/14 10:20:20;;;;;;;23.42;16.27;;;;;;;;;;4977588;28;20473;-65
2023/09/14 10:22:48;;;;;;;19.92;14.40;;;;;;;;;;4977661;28;20050;-64
2023/09/14 10:25:16;;;;;;;19.50;14.93;;;;;;;;;;4973830;28;20149;-64
2023/09/14 10:27:43;;;;;;;22.17;15.55;;;;;;;;;;4973587;28;20051;-63
2023/09/14 10:30:16;;;;;;;21.90;16.50;;;;;;;;;;4975496;28;20043;-64
2023/09/14 10:32:44;;;;;;;23.17;16.70;;;;;;;;;;4968610;28;20471;-64
2023/09/14 10:35:12;;;;;;;22.65;16.67;;;;;;;;;;4980129;28;20123;-66
2023/09/14 10:37:44;;;;;;;20.67;15.27;;;;;;;;;;4963224;28;20047;-65
2023/09/14 10:40:12;;;;;;;22.70;16.25;;;;;;;;;;4964800;28;20395;-64
2023/09/14 10:42:40;;;;;;;22.08;15.73;;;;;;;;;;4971963;28;20073;-65
2023/09/14 10:45:08;;;;;;;22.38;16.10;;;;;;;;;;4971445;28;20129;-63
2023/09/14 10:47:38;;;;;;;19.95;15.35;;;;;;;;;;4972221;28;20042;-65
2023/09/14 10:50:06;;;;;;;20.33;15.52;;;;;;;;;;4973005;28;20450;-63
2023/09/14 10:52:34;;;;;;;17.90;13.35;;;;;;;;;;4971692;28;20064;-65
2023/09/14 10:55:07;;;;;;;16.75;12.90;;;;;;;;;;4975193;28;20548;-65
2023/09/14 10:57:35;;;;;;;16.92;13.65;;;;;;;;;;4963790;28;20351;-64
2023/09/14 11:00:04;;;;;;;16.95;12.70;;;;;;;;;;4971563;28;20074;-63
2023/09/14 11:02:57;;;;;;;16.67;12.75;;;;;;;;;;4975708;28;20473;-63
2023/09/14 11:05:25;;;;;;;16.33;12.90;;;;;;;;;;4970445;28;20141;-63
2023/09/14 11:07:58;;;;;;;14.85;11.15;;;;;;;;;;4966037;28;20043;-64
2023/09/14 11:10:27;;;;;;;15.48;11.77;;;;;;;;;;4983096;28;20042;-63
2023/09/14 11:13:30;;;;;;;14.45;11.93;;;;;;;;;;4974181;28;20135;-63
2023/09/14 11:16:05;;;;;;;15.60;11.80;;;;;;;;;;4978497;28;20047;-61
2023/09/14 11:18:36;;;;;;;15.70;12.07;;;;;;;;;;4974441;28;20042;-62
2023/09/14 11:21:03;;;;;;;14.00;11.25;;;;;;;;;;4970020;28;20361;-63
2023/09/14 11:23:36;;;;;;;15.07;10.50;;;;;;;;;;4969825;28;20088;-63
2023/09/14 11:26:05;;;;;;;14.90;10.63;;;;;;;;;;4964420;28;20146;-63
2023/09/14 11:28:33;;;;;;;14.07;10.75;;;;;;;;;;4972518;28;20125;-65
2023/09/14 11:31:00;;;;;;;14.88;10.77;;;;;;;;;;4972607;28;20054;-64
2023/09/14 11:33:27;;;;;;;14.70;9.68;;;;;;;;;;4970990;28;20134;-62
2023/09/14 11:35:54;;;;;;;13.70;10.55;;;;;;;;;;4973512;28;20045;-62
2023/09/14 11:38:24;;;;;;;13.15;9.90;;;;;;;;;;4969318;28;20049;-63
2023/09/14 11:40:50;;;;;;;13.70;9.90;;;;;;;;;;4976893;28;20046;-64
2023/09/14 11:43:21;;;;;;;13.98;9.80;;;;;;;;;;4969947;28;20138;-66
2023/09/14 11:45:49;;;;;;;12.45;9.63;;;;;;;;;;4972129;28;20043;-63
2023/09/14 11:48:17;;;;;;;11.63;8.80;;;;;;;;;;4970438;28;20047;-63
2023/09/14 11:50:47;;;;;;;12.85;10.15;;;;;;;;;;4973217;28;20469;-63
2023/09/14 11:53:18;;;;;;;12.65;10.05;;;;;;;;;;4984567;28;20512;-63
2023/09/14 11:55:45;;;;;;;11.75;8.85;;;;;;;;;;4964051;28;20458;-65
2023/09/14 11:58:12;;;;;;;12.60;9.55;;;;;;;;;;4975828;28;20045;-65
2023/09/14 12:00:43;;;;;;;11.05;9.02;;;;;;;;;;4976232;28;20050;-63
2023/09/14 12:03:09;;;;;;;10.50;8.80;;;;;;;;;;4970350;28;20043;-64
2023/09/14 12:05:37;;;;;;;12.35;9.07;;;;;;;;;;4974187;28;20561;-63
2023/09/14 12:08:14;;;;;;;13.35;10.40;;;;;;;;;;4968143;28;20126;-64
2023/09/14 12:10:41;;;;;;;11.77;8.88;;;;;;;;;;4973679;28;20146;-64
2023/09/14 12:13:12;;;;;;;12.18;9.40;;;;;;;;;;4976627;28;20046;-63
2023/09/14 12:15:39;;;;;;;10.98;8.73;;;;;;;;;;4985841;28;20089;-63
2023/09/14 12:18:07;;;;;;;11.35;8.65;;;;;;;;;;4980171;28;20078;-62
2023/09/14 12:20:36;;;;;;;10.15;8.35;;;;;;;;;;4981824;28;20057;-64
2023/09/14 12:23:04;;;;;;;12.93;10.88;;;;;;;;;;4973831;28;20422;-64
2023/09/14 12:25:31;;;;;;;14.57;11.50;;;;;;;;;;4980719;28;20050;-64
2023/09/14 12:28:00;;;;;;;12.73;11.20;;;;;;;;;;4976188;28;20050;-63
2023/09/14 12:30:29;;;;;;;13.57;10.73;;;;;;;;;;4969043;28;20410;-63
2023/09/14 12:32:56;;;;;;;13.80;11.05;;;;;;;;;;4981168;28;20073;-63
2023/09/14 12:35:24;;;;;;;13.98;11.10;;;;;;;;;;4983717;28;20100;-63
2023/09/14 12:37:53;;;;;;;14.25;11.50;;;;;;;;;;4977777;28;20525;-65
2023/09/14 12:40:20;;;;;;;13.77;10.77;;;;;;;;;;4974878;28;20058;-65
2023/09/14 12:42:48;;;;;;;13.93;11.02;;;;;;;;;;4976745;28;20047;-65
2023/09/14 12:45:16;;;;;;;13.00;11.57;;;;;;;;;;4986558;28;20054;-62
2023/09/14 12:47:45;;;;;;;14.40;11.02;;;;;;;;;;4975953;28;20047;-64
2023/09/14 12:50:15;;;;;;;14.57;11.77;;;;;;;;;;4970963;28;20056;-64
2023/09/14 12:52:44;;;;;;;12.60;10.30;;;;;;;;;;4974290;28;20562;-64
2023/09/14 12:55:16;;;;;;;13.35;10.50;;;;;;;;;;4974068;28;20046;-63
2023/09/14 12:57:45;;;;;;;13.18;10.05;;;;;;;;;;4977132;28;20414;-62
2023/09/14 13:00:14;;;;;;;11.30;9.47;;;;;;;;;;4979602;28;20378;-63
2023/09/14 13:02:42;;;;;;;14.15;11.57;;;;;;;;;;4975052;28;20292;-65
2023/09/14 13:05:09;;;;;;;15.88;12.00;;;;;;;;;;4986962;28;20047;-62
2023/09/14 13:07:37;;;;;;;13.60;10.50;;;;;;;;;;4963175;28;20090;-64
2023/09/14 13:10:10;;;;;;;14.50;12.02;;;;;;;;;;4977084;28;20047;-64
2023/09/14 13:12:37;;;;;;;13.48;11.63;;;;;;;;;;4979255;28;20058;-64
2023/09/14 13:15:11;;;;;;;13.75;11.70;;;;;;;;;;4979714;28;20054;-64
2023/09/14 13:17:37;;;;;;;12.88;10.98;;;;;;;;;;4978204;28;20063;-64
2023/09/14 13:20:09;;;;;;;14.35;12.18;;;;;;;;;;4971369;28;20070;-63
2023/09/14 13:22:36;;;;;;;11.20;9.32;;;;;;;;;;4976972;28;20047;-63
2023/09/14 13:25:03;;;;;;;11.95;10.65;;;;;;;;;;4977537;28;20054;-62
2023/09/14 13:27:34;;;;;;;10.90;9.52;;;;;;;;;;4977457;28;20486;-63
2023/09/14 13:30:01;;;;;;;11.82;10.23;;;;;;;;;;4974776;28;20062;-63
2023/09/14 13:32:28;;;;;;;11.43;9.27;;;;;;;;;;4968659;28;20053;-64
2023/09/14 13:34:54;;;;;;;11.93;10.50;;;;;;;;;;4978773;28;20043;-63
2023/09/14 13:37:21;;;;;;;11.07;9.00;;;;;;;;;;4974633;28;20145;-64
2023/09/14 13:39:48;;;;;;;10.52;7.25;;;;;;;;;;4980931;28;20117;-64
2023/09/14 13:42:14;;;;;;;11.85;8.50;;;;;;;;;;4973822;28;20054;-64
2023/09/14 13:44:43;;;;;;;11.35;9.20;;;;;;;;;;4975558;28;20526;-64
2023/09/14 13:47:09;;;;;;;9.80;8.63;;;;;;;;;;4975910;28;20050;-64
2023/09/14 13:49:36;;;;;;;10.95;9.25;;;;;;;;;;4971094;28;20051;-62
2023/09/14 13:52:03;;;;;;;11.85;9.50;;;;;;;;;;4978730;28;20049;-63
2023/09/14 13:54:30;;;;;;;32.72;23.48;;;;;;;;;;4978454;28;20133;-62
2023/09/14 13:56:57;;;;;;;151.63;99.25;;;;;;;;;;4971601;28;20410;-68
2023/09/14 13:59:25;;;;;;;99.75;62.60;;;;;;;;;;4981270;28;20046;-68
2023/09/14 14:01:54;;;;;;;74.38;46.70;;;;;;;;;;4970014;28;20124;-63
2023/09/14 14:04:21;;;;;;;83.85;52.45;;;;;;;;;;4969335;28;20437;-64
2023/09/14 14:06:47;;;;;;;49.78;29.98;;;;;;;;;;4978835;28;20466;-63
2023/09/14 14:09:17;;;;;;;83.80;49.40;;;;;;;;;;4977979;28;20126;-63
2023/09/14 14:11:44;;;;;;;71.63;43.55;;;;;;;;;;4975279;28;20071;-63
2023/09/14 14:14:11;;;;;;;31.63;21.92;;;;;;;;;;4978624;28;20434;-63
2023/09/14 14:16:37;;;;;;;56.80;34.13;;;;;;;;;;4971208;28;20062;-63
2023/09/14 14:19:05;;;;;;;41.47;26.23;;;;;;;;;;4972936;28;20529;-65
2023/09/14 14:21:32;;;;;;;24.83;17.23;;;;;;;;;;4976786;28;20140;-62
2023/09/14 14:23:59;;;;;;;23.17;17.70;;;;;;;;;;4969264;28;20055;-63
2023/09/14 14:26:25;;;;;;;21.42;15.73;;;;;;;;;;4982295;28;20138;-62